createdAt,value
2022-10-23T00:01:29.337Z,30.67
2022-10-23T00:08:31.165Z,31.50
2022-10-23T00:15:34.843Z,37.97
2022-10-23T00:22:37.411Z,31.35
2022-10-23T00:29:39.206Z,33.05
2022-10-23T00:36:41.302Z,37.13
2022-10-23T00:44:05.303Z,39.72
2022-10-23T00:51:07.105Z,40.85
2022-10-23T00:58:08.937Z,41.90
2022-10-23T01:05:11.108Z,49.03
2022-10-23T01:12:15.905Z,46.45
2022-10-23T01:19:20.635Z,49.42
2022-10-23T01:26:34.682Z,51.65
2022-10-23T01:33:39.671Z,47.08
2022-10-23T01:40:47.752Z,48.22
2022-10-23T01:47:50.951Z,38.78
2022-10-23T01:54:54.384Z,50.40
2022-10-23T02:01:58.457Z,45.22
2022-10-23T02:09:00.372Z,40.67
2022-10-23T02:16:17.930Z,40.15
2022-10-23T02:23:22.190Z,36.38
2022-10-23T02:30:23.932Z,37.58
2022-10-23T02:37:26.918Z,31.42
2022-10-23T02:44:51.532Z,39.33
2022-10-23T02:52:02.478Z,39.58
2022-10-23T02:59:10.428Z,33.10
2022-10-23T03:06:12.215Z,38.88
2022-10-23T03:13:14.009Z,38.03
2022-10-23T03:20:15.980Z,30.10
2022-10-23T03:27:17.855Z,37.03
2022-10-23T03:34:19.664Z,33.92
2022-10-23T03:41:21.567Z,34.17
2022-10-23T03:48:25.181Z,35.30
2022-10-23T03:55:27.624Z,30.00
2022-10-23T04:02:29.683Z,30.70
2022-10-23T04:09:31.512Z,35.33
2022-10-23T04:16:33.439Z,32.60
2022-10-23T04:23:35.241Z,33.47
2022-10-23T04:30:36.979Z,32.65
2022-10-23T04:37:38.673Z,31.13
2022-10-23T04:44:40.488Z,36.03
2022-10-23T04:51:42.252Z,41.90
2022-10-23T04:58:44.016Z,32.85
2022-10-23T05:05:46.129Z,35.60
2022-10-23T05:12:47.922Z,31.83
2022-10-23T05:19:54.707Z,32.70
2022-10-23T05:26:56.652Z,27.45
2022-10-23T05:33:58.622Z,33.72
2022-10-23T05:41:00.419Z,36.05
2022-10-23T05:48:11.093Z,46.05
2022-10-23T05:55:19.895Z,32.30
2022-10-23T06:02:21.729Z,34.97
2022-10-23T06:09:23.575Z,29.70
2022-10-23T06:16:27.157Z,35.63
2022-10-23T06:23:30.435Z,40.97
2022-10-23T06:30:32.313Z,49.70
2022-10-23T06:37:34.938Z,49.33
2022-10-23T06:44:36.980Z,42.47
2022-10-23T06:51:38.877Z,49.22
2022-10-23T06:58:41.332Z,45.30
2022-10-23T07:05:45.116Z,39.30
2022-10-23T07:12:49.029Z,34.53
2022-10-23T07:19:50.805Z,38.15
2022-10-23T07:26:52.512Z,30.40
2022-10-23T07:33:54.505Z,30.35
2022-10-23T07:40:59.590Z,29.02
2022-10-23T07:48:01.391Z,36.30
2022-10-23T07:55:03.281Z,33.90
2022-10-23T08:02:05.104Z,27.65
2022-10-23T08:09:07.253Z,32.50
2022-10-23T08:16:09.041Z,23.38
2022-10-23T08:23:12.675Z,30.00
2022-10-23T08:30:14.545Z,36.83
2022-10-23T08:37:16.483Z,29.50
2022-10-23T08:44:24.726Z,29.05
2022-10-23T08:51:30.207Z,26.63
2022-10-23T08:58:34.932Z,28.52
2022-10-23T09:06:02.638Z,30.30
2022-10-23T09:13:23.263Z,24.55
2022-10-23T09:20:26.461Z,27.60
2022-10-23T09:27:28.385Z,25.95
2022-10-23T09:34:31.654Z,20.27
2022-10-23T09:41:38.090Z,26.42
2022-10-23T09:48:42.667Z,25.85
2022-10-23T09:55:51.486Z,48.78
2022-10-23T10:02:58.105Z,57.80
2022-10-23T10:10:00.042Z,24.52
2022-10-23T10:17:20.596Z,24.00
2022-10-23T10:24:34.673Z,37.28
2022-10-23T10:31:36.334Z,22.08
2022-10-23T10:38:47.674Z,35.70
2022-10-23T10:45:52.938Z,24.40
2022-10-23T10:53:07.469Z,26.92
2022-10-23T11:00:18.044Z,31.27
2022-10-23T11:07:22.707Z,31.08
2022-10-23T11:14:26.415Z,36.05
2022-10-23T11:21:44.700Z,38.75
2022-10-23T11:28:52.602Z,32.40
2022-10-23T11:36:01.006Z,25.58
2022-10-23T11:43:02.815Z,23.17
2022-10-23T11:50:12.220Z,25.75
2022-10-23T11:57:15.667Z,26.73
2022-10-23T12:04:25.589Z,24.25
2022-10-23T12:11:29.021Z,25.33
2022-10-23T12:18:31.836Z,23.48
2022-10-23T12:25:52.589Z,33.78
2022-10-23T12:32:54.864Z,31.27
2022-10-23T12:39:56.889Z,20.77
2022-10-23T12:47:01.042Z,27.48
2022-10-23T12:54:03.492Z,25.75
2022-10-23T13:01:06.723Z,34.38
2022-10-23T13:08:10.770Z,30.27
2022-10-23T13:15:12.783Z,33.17
2022-10-23T13:22:20.408Z,40.00
2022-10-23T13:36:28.247Z,35.20
2022-10-23T13:43:33.938Z,34.53
2022-10-23T13:50:36.377Z,30.38
2022-10-23T13:57:38.319Z,34.92
2022-10-23T14:04:40.544Z,27.02
2022-10-23T14:11:42.881Z,35.60
2022-10-23T14:18:44.937Z,38.33
2022-10-23T14:25:46.681Z,37.63
2022-10-23T14:32:50.196Z,39.28
2022-10-23T14:39:51.862Z,31.55
2022-10-23T14:46:54.751Z,36.50
2022-10-23T14:54:02.737Z,32.78
2022-10-23T15:01:07.193Z,36.78
2022-10-23T15:08:10.121Z,32.70
2022-10-23T15:15:12.816Z,37.70
2022-10-23T15:22:17.195Z,30.48
2022-10-23T15:29:22.385Z,35.17
2022-10-23T15:36:26.678Z,37.90
2022-10-23T15:43:34.066Z,38.85
2022-10-23T15:50:38.727Z,36.70
2022-10-23T15:57:43.181Z,41.28
2022-10-23T16:04:47.912Z,37.72
2022-10-23T16:11:52.655Z,40.47
2022-10-23T16:18:55.254Z,39.03
2022-10-23T16:25:59.417Z,35.10
2022-10-23T16:33:02.544Z,39.97
2022-10-23T16:40:13.923Z,45.35
2022-10-23T16:47:16.610Z,45.88
2022-10-23T16:54:18.923Z,40.08
2022-10-23T17:01:25.273Z,41.65
2022-10-23T17:08:31.853Z,35.17
2022-10-23T17:15:34.260Z,60.58
2022-10-23T17:22:38.458Z,35.63
2022-10-23T17:29:41.073Z,39.08
2022-10-23T17:36:45.124Z,60.33
2022-10-23T17:43:47.395Z,67.18
2022-10-23T17:50:52.273Z,40.42
2022-10-23T17:57:54.220Z,49.58
2022-10-23T18:04:56.741Z,50.17
2022-10-23T18:11:59.191Z,48.50
2022-10-23T18:19:02.083Z,49.05
2022-10-23T18:26:05.380Z,62.03
2022-10-23T18:33:07.941Z,59.83
2022-10-23T18:40:10.493Z,56.33
2022-10-23T18:47:13.088Z,56.40
2022-10-23T18:54:17.419Z,54.25
2022-10-23T19:01:20.066Z,54.15
2022-10-23T19:08:22.674Z,50.35
2022-10-23T19:15:25.232Z,48.90
2022-10-23T19:22:30.378Z,54.95
2022-10-23T19:29:33.384Z,44.38
2022-10-23T19:36:38.171Z,49.88
2022-10-23T19:43:41.586Z,45.33
2022-10-23T19:50:44.455Z,50.47
2022-10-23T19:57:47.688Z,46.05
2022-10-23T20:04:50.277Z,55.45
2022-10-23T20:11:52.652Z,44.05
2022-10-23T20:18:54.906Z,50.30
2022-10-23T20:26:07.310Z,43.65
2022-10-23T20:33:09.411Z,49.17
2022-10-23T20:40:12.642Z,46.58
2022-10-23T20:47:15.321Z,39.58
2022-10-23T20:54:17.306Z,45.50
2022-10-23T21:01:19.857Z,47.75
2022-10-23T21:08:22.070Z,49.25
2022-10-23T21:15:24.039Z,50.72
2022-10-23T21:22:26.004Z,42.90
2022-10-23T21:29:31.304Z,64.35
2022-10-23T21:36:48.266Z,49.45
2022-10-23T21:43:59.872Z,52.28
2022-10-23T21:51:02.182Z,49.17
2022-10-23T21:58:03.967Z,50.13
2022-10-23T22:05:05.742Z,41.58
2022-10-23T22:12:07.759Z,42.28
2022-10-23T22:19:13.137Z,40.65
2022-10-23T22:26:25.423Z,41.13
2022-10-23T22:33:27.746Z,42.65
2022-10-23T22:40:29.827Z,47.28
2022-10-23T22:47:31.678Z,45.20
2022-10-23T22:54:33.603Z,44.42
2022-10-23T23:01:37.219Z,44.08
2022-10-23T23:08:42.861Z,44.17
2022-10-23T23:15:44.810Z,35.80
2022-10-23T23:22:46.971Z,41.63
2022-10-23T23:29:49.027Z,46.40
2022-10-23T23:36:51.228Z,38.22
2022-10-23T23:43:57.045Z,40.28
2022-10-23T23:50:59.033Z,45.88
2022-10-23T23:58:00.740Z,41.47
